Time;durP1;ratioP1;P1;durP2;ratioP2;P2;SDS_P1;SDS_P2;PMS_P1;PMS_P2;Temp;Humidity;BMP_temperature;BMP_pressure;BME280_temperature;BME280_humidity;BME280_pressure;Samples;Min_cycle;Max_cycle;Signal;HPM_P1;HPM_P2
2021/12/25 00:00:57;;;;;;;8.80;5.03;;;5.70;99.90;;;;;;5028138;28;20181;-94
2021/12/25 00:03:23;;;;;;;4.10;3.70;;;5.70;99.90;;;;;;5027376;28;20202;-93
2021/12/25 00:05:52;;;;;;;7.77;4.47;;;5.60;99.90;;;;;;4995490;28;20204;-93
2021/12/25 00:08:26;;;;;;;7.27;4.43;;;5.60;99.90;;;;;;5027272;28;20244;-93
2021/12/25 00:10:52;;;;;;;6.20;5.23;;;5.60;99.90;;;;;;5026488;28;20173;-94
2021/12/25 00:13:19;;;;;;;9.17;5.17;;;5.60;99.90;;;;;;5027707;28;20264;-93
2021/12/25 00:15:45;;;;;;;6.00;5.40;;;5.60;99.90;;;;;;5027700;28;20228;-93
2021/12/25 00:18:11;;;;;;;6.63;5.93;;;5.60;99.90;;;;;;4995434;28;20188;-93
2021/12/25 00:20:37;;;;;;;10.37;5.77;;;5.60;99.90;;;;;;5026564;28;20181;-94
2021/12/25 00:23:05;;;;;;;7.70;5.80;;;5.60;99.90;;;;;;5027828;28;20670;-93
2021/12/25 00:25:36;;;;;;;6.67;5.93;;;5.60;99.90;;;;;;5027011;28;20229;-93
2021/12/25 00:28:21;;;;;;;9.87;6.70;;;5.60;99.90;;;;;;5026856;28;20205;-93
2021/12/25 00:36:00;;;;;;;8.50;5.90;;;5.50;99.90;;;;;;4994513;28;20273;-93
2021/12/25 00:38:26;;;;;;;7.40;6.33;;;5.50;99.90;;;;;;4994913;28;20268;-93
2021/12/25 00:40:51;;;;;;;6.13;5.53;;;5.40;99.90;;;;;;5025859;28;20214;-93
2021/12/25 00:43:17;;;;;;;6.40;5.67;;;5.40;99.90;;;;;;4995013;28;20182;-94
2021/12/25 00:45:42;;;;;;;7.07;5.60;;;5.40;99.90;;;;;;5027089;28;20206;-94
2021/12/25 00:48:08;;;;;;;6.10;5.37;;;5.30;99.90;;;;;;5026787;28;20588;-94
2021/12/25 00:50:34;;;;;;;6.43;5.47;;;5.40;99.90;;;;;;5002983;28;20184;-93
2021/12/25 00:52:59;;;;;;;6.37;5.67;;;5.40;99.90;;;;;;5029464;28;20289;-93
2021/12/25 00:55:25;;;;;;;6.63;5.90;;;5.30;99.90;;;;;;4994823;28;20198;-93
2021/12/25 00:57:51;;;;;;;7.00;6.20;;;5.30;99.90;;;;;;5002578;28;20185;-93
2021/12/25 01:00:18;;;;;;;7.90;5.90;;;5.70;99.90;;;;;;5033260;28;20185;-93
2021/12/25 01:02:45;;;;;;;7.30;6.40;;;5.20;99.90;;;;;;5028317;28;20256;-93
2021/12/25 01:05:14;;;;;;;7.47;6.10;;;5.20;99.90;;;;;;5025896;28;20288;-93
2021/12/25 01:07:39;;;;;;;7.77;6.50;;;5.20;99.90;;;;;;4994458;28;20209;-94
2021/12/25 01:10:08;;;;;;;8.33;6.50;;;5.20;99.90;;;;;;4994983;28;20228;-93
2021/12/25 01:12:49;;;;;;;7.73;6.50;;;5.20;99.90;;;;;;5034150;28;20181;-94
2021/12/25 01:15:18;;;;;;;7.03;6.17;;;5.10;99.90;;;;;;5044009;28;20265;-93
2021/12/25 01:38:56;;;;;;;12.83;10.87;;;5.00;99.90;;;;;;4998092;28;20631;-93
2021/12/25 01:41:57;;;;;;;12.63;11.03;;;4.90;99.90;;;;;;4997191;28;20544;-93
2021/12/25 01:49:44;;;;;;;13.73;11.93;;;4.90;99.90;;;;;;4998320;28;20296;-93
2021/12/25 01:52:09;;;;;;;12.53;11.23;;;4.90;99.90;;;;;;4996961;28;20204;-93
2021/12/25 01:54:35;;;;;;;14.07;12.20;;;4.90;99.90;;;;;;4996188;28;20252;-93
2021/12/25 01:57:01;;;;;;;14.03;11.50;;;4.80;99.90;;;;;;4997100;28;20189;-93
2021/12/25 01:59:27;;;;;;;14.03;12.27;;;4.80;99.90;;;;;;4996300;28;20216;-93
2021/12/25 02:01:53;;;;;;;13.83;11.57;;;4.80;99.90;;;;;;4996382;28;20283;-93
2021/12/25 02:04:19;;;;;;;14.47;12.47;;;4.80;99.90;;;;;;4996733;28;20701;-94
2021/12/25 02:06:45;;;;;;;13.53;12.00;;;4.70;99.90;;;;;;4997441;28;20205;-93
2021/12/25 02:09:11;;;;;;;13.30;10.73;;;4.70;99.90;;;;;;4996004;28;20180;-93
2021/12/25 02:11:36;;;;;;;13.87;10.73;;;4.60;99.90;;;;;;4996298;28;20305;-93
2021/12/25 02:14:03;;;;;;;12.77;10.80;;;4.60;99.90;;;;;;4997057;28;20174;-94
2021/12/25 02:16:38;;;;;;;13.03;11.63;;;4.60;99.90;;;;;;4995436;28;20257;-93
2021/12/25 02:19:09;;;;;;;13.97;11.43;;;4.60;99.90;;;;;;4995854;28;20169;-93
2021/12/25 02:21:37;;;;;;;16.43;10.67;;;4.60;99.90;;;;;;4996927;28;20166;-93
2021/12/25 02:24:05;;;;;;;14.80;11.77;;;4.50;99.90;;;;;;4995618;28;20178;-93
2021/12/25 02:26:32;;;;;;;12.13;10.83;;;4.50;99.90;;;;;;4995103;28;20185;-93
2021/12/25 02:28:57;;;;;;;12.80;11.27;;;4.50;99.90;;;;;;5028360;28;20178;-93
2021/12/25 02:31:23;;;;;;;16.07;11.47;;;4.50;99.90;;;;;;4995273;28;20181;-93
2021/12/25 02:33:49;;;;;;;13.47;10.97;;;4.50;99.90;;;;;;4995203;28;20611;-93
2021/12/25 02:36:16;;;;;;;13.07;11.60;;;4.40;99.90;;;;;;4995850;28;20235;-93
2021/12/25 02:38:43;;;;;;;12.37;10.87;;;4.40;99.90;;;;;;4996936;28;20178;-93
2021/12/25 02:41:09;;;;;;;12.93;10.80;;;4.30;99.90;;;;;;4996338;28;20648;-93
2021/12/25 02:43:35;;;;;;;13.47;11.37;;;4.30;99.90;;;;;;4995171;28;20650;-93
2021/12/25 02:46:03;;;;;;;12.40;10.23;;;4.30;99.90;;;;;;4994981;28;20205;-93
2021/12/25 02:48:29;;;;;;;13.70;11.63;;;4.30;99.90;;;;;;4995041;28;20197;-93
2021/12/25 02:50:55;;;;;;;12.50;11.20;;;4.20;99.90;;;;;;5027722;28;20294;-93
2021/12/25 02:53:21;;;;;;;11.80;10.60;;;4.20;99.90;;;;;;4994959;28;20205;-94
2021/12/25 02:55:47;;;;;;;13.37;11.40;;;4.20;99.90;;;;;;4994943;28;20208;-94
2021/12/25 02:58:14;;;;;;;13.80;12.00;;;4.20;99.90;;;;;;4994780;28;20178;-93
2021/12/25 03:00:47;;;;;;;11.37;10.27;;;4.20;99.90;;;;;;4995786;28;20268;-93
2021/12/25 03:03:13;;;;;;;12.63;11.33;;;4.10;99.90;;;;;;4994616;28;20293;-94
2021/12/25 03:05:39;;;;;;;11.90;10.33;;;4.10;99.90;;;;;;4994149;28;20284;-93
2021/12/25 03:08:07;;;;;;;12.53;11.03;;;4.10;99.90;;;;;;4994534;28;20205;-93
2021/12/25 03:10:34;;;;;;;11.57;10.37;;;4.10;99.90;;;;;;5002855;28;20205;-94
2021/12/25 03:15:45;;;;;;;11.20;10.00;;;4.00;99.90;;;;;;5023903;22;20243;-78
2021/12/25 03:18:17;;;;;;;11.40;10.20;;;4.00;99.90;;;;;;5013019;28;20188;-79
2021/12/25 03:20:45;;;;;;;11.40;10.30;;;4.00;99.90;;;;;;5029691;28;20169;-75
2021/12/25 03:23:16;;;;;;;11.90;10.70;;;3.90;99.90;;;;;;5012590;28;20201;-75
2021/12/25 03:25:43;;;;;;;14.23;11.50;;;3.90;99.90;;;;;;5014416;28;20193;-76
2021/12/25 03:28:09;;;;;;;12.63;11.33;;;3.90;99.90;;;;;;5013520;28;20237;-77
2021/12/25 03:30:38;;;;;;;12.63;11.27;;;3.80;99.90;;;;;;5016841;28;20526;-78
2021/12/25 03:33:11;;;;;;;11.93;10.70;;;3.80;99.90;;;;;;5015032;28;20281;-79
2021/12/25 03:35:37;;;;;;;13.33;10.97;;;3.80;99.90;;;;;;5014904;28;20623;-79
2021/12/25 03:38:05;;;;;;;13.90;12.33;;;3.80;99.90;;;;;;5013495;28;20660;-79
2021/12/25 03:40:31;;;;;;;14.13;11.53;;;3.80;99.90;;;;;;5014439;28;20181;-79
2021/12/25 03:42:58;;;;;;;12.20;10.93;;;3.80;99.90;;;;;;5014759;28;20204;-79
2021/12/25 03:45:24;;;;;;;12.73;11.43;;;3.70;99.90;;;;;;5014911;28;20177;-78
2021/12/25 03:47:52;;;;;;;13.27;11.67;;;3.70;99.90;;;;;;5014854;28;20536;-79
2021/12/25 03:58:24;;;;;;;13.13;11.73;;;3.70;99.90;;;;;;5013183;28;20180;-79
2021/12/25 04:00:51;;;;;;;13.30;11.90;;;3.60;99.90;;;;;;5013392;28;20231;-78
2021/12/25 04:03:40;;;;;;;13.00;11.57;;;3.70;99.90;;;;;;5014641;28;20199;-79
2021/12/25 04:06:07;;;;;;;13.70;12.23;;;3.60;99.90;;;;;;5014131;28;20289;-79
2021/12/25 04:08:40;;;;;;;12.60;11.30;;;3.60;99.90;;;;;;5014599;28;20185;-79
2021/12/25 04:11:12;;;;;;;12.77;11.47;;;3.60;99.90;;;;;;5014537;28;20149;-79
2021/12/25 04:13:38;;;;;;;12.63;11.00;;;3.60;99.90;;;;;;5012614;28;20699;-79
2021/12/25 04:16:03;;;;;;;12.57;11.07;;;3.50;99.90;;;;;;5014340;28;20185;-78
2021/12/25 04:18:29;;;;;;;13.83;11.67;;;3.60;99.90;;;;;;5014931;28;20179;-79
2021/12/25 04:20:54;;;;;;;12.93;11.70;;;3.60;99.90;;;;;;5014504;28;20181;-79
2021/12/25 04:23:25;;;;;;;14.07;12.27;;;3.60;99.90;;;;;;5012978;28;20287;-79
2021/12/25 04:25:51;;;;;;;12.93;11.53;;;3.60;99.90;;;;;;5014669;28;20500;-78
2021/12/25 04:28:30;;;;;;;14.13;12.27;;;3.60;99.90;;;;;;5014197;28;20284;-79
2021/12/25 04:50:08;;;;;;;13.97;11.47;;;3.40;99.90;;;;;;5014163;28;20284;-77
2021/12/25 05:03:55;;;;;;;16.13;13.20;;;3.20;99.90;;;;;;5013338;28;20303;-79
2021/12/25 05:06:23;;;;;;;16.13;12.87;;;3.20;99.90;;;;;;5015753;28;20193;-79
2021/12/25 05:08:50;;;;;;;15.43;12.77;;;3.20;99.90;;;;;;5016173;28;20204;-79
2021/12/25 05:11:16;;;;;;;13.33;11.73;;;3.20;99.90;;;;;;5016873;28;20219;-79
2021/12/25 05:13:43;;;;;;;14.80;12.13;;;3.10;99.90;;;;;;5017208;28;20189;-79
2021/12/25 05:16:09;;;;;;;13.83;11.83;;;3.10;99.90;;;;;;5017062;28;20242;-78
2021/12/25 05:18:35;;;;;;;15.67;12.60;;;3.00;99.90;;;;;;5017286;28;20647;-78
2021/12/25 05:21:00;;;;;;;14.90;11.57;;;3.10;99.90;;;;;;5015926;28;20181;-79
2021/12/25 05:23:26;;;;;;;15.13;11.10;;;3.00;99.90;;;;;;5015833;28;20200;-79
2021/12/25 05:25:52;;;;;;;14.67;11.03;;;3.00;99.90;;;;;;5016043;28;20220;-78
2021/12/25 05:28:24;;;;;;;13.17;11.20;;;3.00;99.90;;;;;;5016843;28;20619;-78
2021/12/25 05:30:51;;;;;;;13.30;11.20;;;3.00;99.90;;;;;;5017014;28;20219;-78
2021/12/25 05:33:17;;;;;;;13.63;11.07;;;2.90;99.90;;;;;;5017056;28;20200;-78
2021/12/25 05:35:42;;;;;;;11.90;10.33;;;2.90;99.90;;;;;;5016817;28;20169;-79
2021/12/25 05:38:13;;;;;;;14.43;10.40;;;2.80;99.90;;;;;;5015642;28;20239;-79
2021/12/25 05:40:39;;;;;;;11.57;10.37;;;2.80;99.90;;;;;;5016707;28;20169;-79
2021/12/25 05:43:05;;;;;;;13.20;10.13;;;2.80;99.90;;;;;;5016579;28;20205;-79
2021/12/25 05:45:31;;;;;;;11.83;10.30;;;2.70;99.90;;;;;;5016511;28;20518;-78
2021/12/25 05:47:57;;;;;;;10.70;9.23;;;2.70;99.90;;;;;;5016549;28;20542;-79
2021/12/25 05:50:23;;;;;;;11.93;9.90;;;2.70;99.90;;;;;;5016384;28;20176;-79
2021/12/25 05:52:49;;;;;;;10.37;9.37;;;2.70;99.90;;;;;;5016519;28;20189;-79
2021/12/25 05:55:15;;;;;;;11.40;9.73;;;2.70;99.90;;;;;;5016891;28;20255;-79
2021/12/25 05:57:40;;;;;;;11.20;9.63;;;2.70;99.90;;;;;;5016398;28;20200;-79
2021/12/25 06:00:08;;;;;;;10.60;8.73;;;2.60;99.90;;;;;;5014756;28;20189;-79
2021/12/25 06:02:35;;;;;;;10.87;9.37;;;2.60;99.90;;;;;;5016463;28;20196;-79
2021/12/25 06:05:03;;;;;;;10.20;9.20;;;2.50;99.90;;;;;;5015055;28;20612;-79
2021/12/25 06:07:29;;;;;;;11.67;9.13;;;2.40;99.90;;;;;;5015261;28;20200;-79
2021/12/25 06:09:54;;;;;;;10.53;9.47;;;2.30;99.90;;;;;;5015027;28;20184;-79
2021/12/25 06:12:20;;;;;;;11.03;9.27;;;2.30;99.90;;;;;;5015675;28;20604;-79
2021/12/25 06:14:47;;;;;;;11.03;8.77;;;2.20;99.90;;;;;;5014578;28;20549;-79
2021/12/25 06:17:13;;;;;;;9.37;8.47;;;2.20;99.90;;;;;;5014864;28;20624;-78
2021/12/25 06:19:38;;;;;;;9.70;8.70;;;2.10;99.90;;;;;;5015946;28;20312;-78
2021/12/25 06:22:04;;;;;;;12.20;9.40;;;2.10;99.90;;;;;;5015839;28;20204;-79
2021/12/25 06:24:30;;;;;;;10.27;8.63;;;2.10;99.90;;;;;;5014436;28;20657;-78
2021/12/25 06:26:56;;;;;;;10.27;9.17;;;2.00;99.90;;;;;;5014401;28;20211;-79
2021/12/25 06:29:23;;;;;;;10.30;9.17;;;2.00;99.90;;;;;;5013932;28;20165;-78
2021/12/25 06:31:50;;;;;;;11.97;9.63;;;2.00;99.90;;;;;;5015962;28;20165;-77
2021/12/25 06:34:16;;;;;;;10.03;9.03;;;2.00;99.90;;;;;;5015352;28;20236;-79
2021/12/25 06:36:41;;;;;;;14.83;9.73;;;2.00;99.90;;;;;;5015426;28;20169;-79
2021/12/25 06:39:11;;;;;;;11.13;9.77;;;1.90;99.90;;;;;;5015437;28;20540;-78
2021/12/25 06:41:37;;;;;;;12.17;9.87;;;1.90;99.90;;;;;;5015265;28;20173;-78
2021/12/25 06:44:02;;;;;;;11.43;10.13;;;1.90;99.90;;;;;;5015113;28;20192;-78
2021/12/25 06:46:28;;;;;;;12.27;10.40;;;1.90;99.90;;;;;;5015051;28;20189;-77
2021/12/25 06:48:54;;;;;;;11.80;9.87;;;1.90;99.90;;;;;;5015314;28;20327;-78
2021/12/25 06:51:19;;;;;;;11.40;9.93;;;1.90;99.90;;;;;;5015296;28;20176;-78
2021/12/25 06:53:45;;;;;;;11.87;10.37;;;1.90;99.90;;;;;;5015159;28;20666;-78
2021/12/25 06:56:10;;;;;;;10.67;9.57;;;1.80;99.90;;;;;;5013758;28;20173;-78
2021/12/25 06:58:36;;;;;;;11.57;10.37;;;1.80;99.90;;;;;;5013689;28;20181;-78
2021/12/25 07:01:02;;;;;;;11.93;10.00;;;1.80;99.90;;;;;;5014558;28;21544;-78
2021/12/25 07:03:28;;;;;;;12.83;10.43;;;1.80;99.90;;;;;;5014708;28;20713;-78
2021/12/25 07:05:54;;;;;;;11.80;9.53;;;1.80;99.90;;;;;;5014758;28;20169;-78
2021/12/25 07:08:19;;;;;;;13.87;9.97;;;1.80;99.90;;;;;;5014816;28;20686;-78
2021/12/25 07:10:45;;;;;;;11.50;10.30;;;1.80;99.90;;;;;;5014493;28;20184;-78
2021/12/25 07:13:16;;;;;;;16.83;10.87;;;1.70;99.90;;;;;;5014875;28;20193;-78
2021/12/25 07:15:42;;;;;;;13.70;11.23;;;1.70;99.90;;;;;;5013421;28;20188;-76
2021/12/25 07:18:08;;;;;;;14.17;10.97;;;1.80;99.90;;;;;;5014720;28;20353;-77
2021/12/25 07:20:33;;;;;;;12.67;10.87;;;1.70;99.90;;;;;;5013328;28;20177;-78
2021/12/25 07:23:00;;;;;;;13.93;12.30;;;1.70;99.90;;;;;;5015031;28;20291;-77
2021/12/25 07:25:26;;;;;;;13.73;12.23;;;1.80;99.90;;;;;;5014256;28;20177;-77
2021/12/25 07:27:51;;;;;;;18.13;13.77;;;1.70;99.90;;;;;;5014531;28;20681;-77
2021/12/25 07:30:18;;;;;;;13.13;11.83;;;1.70;99.90;;;;;;5014512;28;20176;-76
2021/12/25 07:32:43;;;;;;;14.03;12.07;;;1.70;99.90;;;;;;5013224;28;20200;-77
2021/12/25 07:35:09;;;;;;;14.10;12.40;;;1.70;99.90;;;;;;5014614;28;20180;-78
2021/12/25 07:37:35;;;;;;;15.13;12.33;;;1.70;99.90;;;;;;5014749;28;20643;-78
2021/12/25 07:40:03;;;;;;;15.47;12.77;;;1.70;99.90;;;;;;5012444;28;20304;-78
2021/12/25 07:42:29;;;;;;;15.23;12.93;;;1.70;99.90;;;;;;5013001;28;20214;-78
2021/12/25 07:45:02;;;;;;;14.47;11.97;;;1.70;99.90;;;;;;5014517;28;20251;-78
2021/12/25 07:47:27;;;;;;;14.43;12.13;;;1.70;99.90;;;;;;5014580;28;20212;-77
2021/12/25 07:49:56;;;;;;;14.77;11.67;;;1.70;99.90;;;;;;5014325;28;20169;-76
2021/12/25 07:52:22;;;;;;;14.80;12.17;;;1.70;99.90;;;;;;5014759;28;20189;-78
2021/12/25 07:54:48;;;;;;;14.63;11.77;;;1.60;99.90;;;;;;5014086;28;20181;-78
2021/12/25 07:57:13;;;;;;;14.20;12.70;;;1.60;99.90;;;;;;5014277;28;20173;-77
2021/12/25 07:59:39;;;;;;;16.10;12.03;;;1.60;99.90;;;;;;5013891;28;20207;-78
2021/12/25 08:02:05;;;;;;;14.10;11.93;;;1.60;99.90;;;;;;5014234;28;20184;-78
2021/12/25 08:04:30;;;;;;;17.60;12.67;;;1.50;99.90;;;;;;5013040;28;20177;-77
2021/12/25 08:06:56;;;;;;;14.50;12.00;;;1.50;99.90;;;;;;5012957;28;20181;-78
2021/12/25 08:09:28;;;;;;;17.77;13.37;;;1.50;99.90;;;;;;5012811;28;20211;-77
2021/12/25 08:11:56;;;;;;;17.20;13.17;;;1.50;99.90;;;;;;5013771;28;20165;-78
2021/12/25 08:14:25;;;;;;;16.87;13.13;;;1.50;99.90;;;;;;5013836;28;20203;-78
2021/12/25 08:16:55;;;;;;;16.10;13.80;;;1.50;99.90;;;;;;5014415;28;20156;-77
2021/12/25 08:19:21;;;;;;;17.53;14.37;;;1.50;99.90;;;;;;5012740;28;20176;-77
2021/12/25 08:21:47;;;;;;;16.13;13.60;;;1.50;99.90;;;;;;5013927;28;20197;-78
2021/12/25 08:24:13;;;;;;;16.63;14.40;;;1.40;99.90;;;;;;5013613;28;20247;-77
2021/12/25 08:26:39;;;;;;;17.57;14.20;;;1.40;99.90;;;;;;5013506;28;20227;-78
2021/12/25 08:29:05;;;;;;;18.57;15.03;;;1.40;99.90;;;;;;5012409;28;20247;-78
2021/12/25 08:31:31;;;;;;;18.10;14.30;;;1.40;99.90;;;;;;5013689;28;20639;-77
2021/12/25 08:33:56;;;;;;;20.67;14.77;;;1.40;99.90;;;;;;5013794;28;20204;-77
2021/12/25 08:36:22;;;;;;;20.63;16.37;;;1.40;99.90;;;;;;5013499;28;20227;-78
2021/12/25 08:38:47;;;;;;;19.70;15.87;;;1.40;99.90;;;;;;5012182;28;20177;-77
2021/12/25 08:41:13;;;;;;;20.23;16.63;;;1.40;99.90;;;;;;5015776;28;20230;-77
2021/12/25 08:43:46;;;;;;;20.63;17.37;;;1.40;99.90;;;;;;5015450;28;20204;-78
2021/12/25 08:46:18;;;;;;;23.03;17.97;;;1.40;99.90;;;;;;5016774;28;20176;-77
2021/12/25 08:48:45;;;;;;;22.87;17.90;;;1.40;99.90;;;;;;5016483;28;20204;-77
2021/12/25 08:51:12;;;;;;;24.30;19.30;;;1.40;99.90;;;;;;5015941;28;20271;-78
2021/12/25 08:53:37;;;;;;;28.47;20.37;;;1.40;99.90;;;;;;5017194;28;20204;-78
2021/12/25 08:56:04;;;;;;;21.90;17.83;;;1.40;99.90;;;;;;5015835;28;20173;-76
2021/12/25 08:58:31;;;;;;;21.67;17.13;;;1.50;99.90;;;;;;5016889;28;20199;-78
2021/12/25 09:01:01;;;;;;;19.00;15.93;;;1.50;99.90;;;;;;5015050;28;20185;-77
2021/12/25 09:03:27;;;;;;;21.07;16.83;;;1.50;99.90;;;;;;5015460;28;20200;-78
2021/12/25 09:05:59;;;;;;;17.73;15.00;;;1.40;99.90;;;;;;5016899;28;20536;-77
2021/12/25 09:08:25;;;;;;;17.60;14.67;;;1.40;99.90;;;;;;5015370;28;20231;-78
2021/12/25 09:10:52;;;;;;;17.57;14.17;;;1.40;99.90;;;;;;5015188;28;20204;-77
2021/12/25 09:13:18;;;;;;;18.73;14.50;;;1.40;99.90;;;;;;5016583;28;20585;-78
2021/12/25 09:15:43;;;;;;;17.03;14.00;;;1.40;99.90;;;;;;5027747;23;20311;-92
2021/12/25 09:18:09;;;;;;;14.63;13.00;;;1.40;99.90;;;;;;5016284;28;20260;-91
2021/12/25 09:20:34;;;;;;;15.70;13.30;;;1.40;99.90;;;;;;5016195;28;20219;-91
2021/12/25 09:23:00;;;;;;;16.87;13.13;;;1.40;99.90;;;;;;5017672;28;20542;-91
2021/12/25 09:25:26;;;;;;;16.77;13.00;;;1.50;99.90;;;;;;5015885;28;20678;-91
2021/12/25 09:27:52;;;;;;;17.17;13.07;;;1.40;99.90;;;;;;5041437;22;21893;-77
2021/12/25 09:30:19;;;;;;;16.43;11.63;;;1.40;99.90;;;;;;5016490;28;20165;-76
2021/12/25 09:32:45;;;;;;;14.27;11.90;;;1.50;99.90;;;;;;5014928;28;20173;-76
2021/12/25 09:35:12;;;;;;;14.20;10.87;;;1.40;99.90;;;;;;5016032;28;20247;-76
2021/12/25 09:37:37;;;;;;;15.60;12.00;;;1.50;99.90;;;;;;5016018;28;20177;-76
2021/12/25 09:40:05;;;;;;;15.43;11.07;;;1.40;99.90;;;;;;5015699;28;20724;-76
2021/12/25 09:42:30;;;;;;;12.60;9.73;;;1.40;99.90;;;;;;5016741;23;20236;-77
2021/12/25 09:44:56;;;;;;;13.27;10.50;;;1.50;99.90;;;;;;4996525;28;20166;-78
2021/12/25 09:47:22;;;;;;;17.73;14.23;;;1.40;99.90;;;;;;4996354;28;20197;-77
2021/12/25 09:49:48;;;;;;;11.43;9.60;;;1.40;99.90;;;;;;4996853;28;20185;-78
2021/12/25 09:52:14;;;;;;;13.43;10.27;;;1.40;99.90;;;;;;4994424;28;20698;-78
2021/12/25 09:54:40;;;;;;;11.97;9.37;;;1.40;99.90;;;;;;4988095;28;20185;-78
2021/12/25 09:57:06;;;;;;;10.23;8.33;;;1.40;99.90;;;;;;4977140;28;20711;-78
2021/12/25 09:59:32;;;;;;;10.63;9.17;;;1.50;99.90;;;;;;4976751;28;20202;-78
2021/12/25 10:01:59;;;;;;;10.10;8.23;;;1.40;99.90;;;;;;4976716;28;20198;-75
2021/12/25 10:04:45;;;;;;;11.47;7.67;;;1.40;99.90;;;;;;4975489;28;20235;-77
2021/12/25 10:07:18;;;;;;;10.63;8.20;;;1.40;99.90;;;;;;4975363;28;20282;-78
2021/12/25 10:09:59;;;;;;;9.87;7.87;;;1.40;99.90;;;;;;4977208;28;20159;-78
2021/12/25 10:12:37;;;;;;;7.93;6.93;;;1.30;99.90;;;;;;4993220;28;20625;-78
2021/12/25 10:15:04;;;;;;;7.90;7.03;;;1.40;99.90;;;;;;4995102;28;20251;-78
2021/12/25 10:17:31;;;;;;;7.67;6.87;;;1.40;99.90;;;;;;4994792;28;20662;-77
2021/12/25 10:20:13;;;;;;;8.37;6.53;;;1.40;99.90;;;;;;4996301;28;20177;-78
2021/12/25 10:22:58;;;;;;;8.97;7.27;;;1.40;99.90;;;;;;4995939;28;20664;-77
2021/12/25 10:25:24;;;;;;;9.30;6.90;;;1.50;99.90;;;;;;4994818;28;20663;-78
2021/12/25 10:27:54;;;;;;;8.67;6.50;;;1.50;99.90;;;;;;4994597;28;20208;-78
2021/12/25 10:30:20;;;;;;;7.00;5.93;;;1.40;99.90;;;;;;4996154;28;20184;-77
2021/12/25 10:32:47;;;;;;;7.20;5.93;;;1.50;99.90;;;;;;4995637;28;20193;-78
2021/12/25 10:35:22;;;;;;;8.67;6.03;;;1.50;99.90;;;;;;4995653;28;20252;-78
2021/12/25 10:37:50;;;;;;;8.87;6.40;;;1.50;99.90;;;;;;4995720;28;20243;-77
2021/12/25 10:40:28;;;;;;;6.50;5.67;;;1.50;99.90;;;;;;4994300;28;20177;-78
2021/12/25 10:42:56;;;;;;;6.73;5.80;;;1.40;99.90;;;;;;4993962;28;20603;-79
2021/12/25 10:45:26;;;;;;;5.57;4.67;;;1.40;99.90;;;;;;4995496;28;20656;-77
2021/12/25 10:48:03;;;;;;;5.87;5.33;;;1.40;99.90;;;;;;4995269;28;20228;-77
2021/12/25 10:50:38;;;;;;;8.47;5.57;;;1.40;99.90;;;;;;4994131;28;20221;-78
2021/12/25 10:53:25;;;;;;;5.73;5.17;;;1.40;99.90;;;;;;4995583;28;20196;-77
2021/12/25 10:55:51;;;;;;;7.93;4.47;;;1.30;99.90;;;;;;4995025;28;20721;-77
2021/12/25 10:58:22;;;;;;;5.77;4.70;;;1.30;99.90;;;;;;4995376;28;20188;-78
2021/12/25 11:00:53;;;;;;;6.33;4.93;;;1.30;99.90;;;;;;4993865;28;20214;-79
2021/12/25 11:03:30;;;;;;;5.30;4.10;;;1.20;99.90;;;;;;4995029;28;20165;-77
2021/12/25 11:06:02;;;;;;;6.37;4.43;;;1.20;99.90;;;;;;4995225;28;20580;-78
2021/12/25 11:08:29;;;;;;;6.17;4.70;;;1.20;99.90;;;;;;4994869;28;20590;-78
2021/12/25 11:11:00;;;;;;;6.20;4.47;;;1.20;99.90;;;;;;4994427;28;20220;-78
2021/12/25 11:13:26;;;;;;;6.03;3.73;;;1.20;99.90;;;;;;4994797;28;20241;-78
2021/12/25 11:16:01;;;;;;;5.07;4.33;;;1.20;99.90;;;;;;4994708;28;20255;-78
2021/12/25 11:18:27;;;;;;;4.83;3.57;;;1.20;99.90;;;;;;4993547;28;20632;-78
2021/12/25 11:20:53;;;;;;;5.10;3.57;;;1.20;99.90;;;;;;4994703;28;20228;-79
2021/12/25 11:23:20;;;;;;;4.63;4.13;;;1.10;99.90;;;;;;4994299;28;20240;-79
2021/12/25 11:25:46;;;;;;;4.10;3.53;;;1.20;99.90;;;;;;4975160;28;20660;-79
2021/12/25 11:28:14;;;;;;;4.40;3.67;;;1.20;99.90;;;;;;4975024;28;20237;-79
2021/12/25 11:30:42;;;;;;;4.13;3.57;;;1.10;99.90;;;;;;4974992;28;20178;-79
2021/12/25 11:33:08;;;;;;;5.53;3.77;;;1.10;99.90;;;;;;4974960;28;20274;-79
2021/12/25 11:35:35;;;;;;;4.03;3.53;;;1.20;99.90;;;;;;4974779;28;20185;-78
2021/12/25 11:38:04;;;;;;;4.80;3.70;;;1.20;99.90;;;;;;4974901;28;20656;-77
2021/12/25 11:40:33;;;;;;;5.33;4.37;;;1.20;99.90;;;;;;4983205;28;20264;-79
2021/12/25 11:43:02;;;;;;;4.13;3.30;;;1.20;99.90;;;;;;4992904;28;20228;-78
2021/12/25 11:45:36;;;;;;;4.17;3.67;;;1.20;99.90;;;;;;4992991;28;20617;-78
2021/12/25 11:48:14;;;;;;;4.00;3.57;;;1.30;99.90;;;;;;4992842;28;20232;-78
2021/12/25 11:50:43;;;;;;;4.90;3.47;;;1.30;99.90;;;;;;4994283;28;20158;-79
2021/12/25 11:53:24;;;;;;;4.53;3.03;;;1.30;99.90;;;;;;4992433;28;20181;-78
2021/12/25 11:58:52;;;;;;;4.47;3.30;;;1.40;99.90;;;;;;4994062;28;20575;-78
2021/12/25 12:01:26;;;;;;;5.30;3.23;;;1.40;99.90;;;;;;4994005;28;20188;-78
2021/12/25 12:03:56;;;;;;;5.50;2.83;;;1.40;99.90;;;;;;4994206;28;20176;-78
2021/12/25 12:06:46;;;;;;;5.37;3.50;;;1.40;99.90;;;;;;4994047;28;20173;-78
2021/12/25 12:09:15;;;;;;;5.03;3.27;;;1.40;99.90;;;;;;4974630;28;20220;-77
2021/12/25 12:11:43;;;;;;;5.50;3.57;;;1.40;99.90;;;;;;4974358;28;20205;-78
2021/12/25 12:14:23;;;;;;;3.80;3.50;;;1.40;99.90;;;;;;4974268;28;20209;-78
2021/12/25 12:16:52;;;;;;;3.57;3.27;;;1.40;99.90;;;;;;4973219;28;20726;-78
2021/12/25 12:19:33;;;;;;;4.80;3.17;;;1.40;99.90;;;;;;4974644;28;20181;-78
2021/12/25 12:22:46;;;;;;;4.30;3.60;;;1.40;99.90;;;;;;4974192;28;20534;-77
2021/12/25 12:25:24;;;;;;;3.63;3.30;;;1.40;99.90;;;;;;4993353;28;20176;-78
2021/12/25 12:27:52;;;;;;;3.27;2.77;;;1.40;99.90;;;;;;4993653;28;20181;-78
2021/12/25 12:30:48;;;;;;;4.67;3.13;;;1.40;99.90;;;;;;4993600;28;20173;-77
2021/12/25 12:33:17;;;;;;;4.50;2.70;;;1.50;99.90;;;;;;4989150;28;20205;-78
2021/12/25 12:35:48;;;;;;;5.33;3.10;;;1.40;99.90;;;;;;4993751;28;20173;-78
2021/12/25 12:38:44;;;;;;;3.97;3.27;;;1.50;99.90;;;;;;4993863;28;20181;-78
2021/12/25 12:41:34;;;;;;;5.00;2.70;;;1.50;99.90;;;;;;4991760;28;20686;-79
2021/12/25 12:44:14;;;;;;;3.07;2.77;;;1.40;99.90;;;;;;4993509;28;20173;-78
2021/12/25 12:46:49;;;;;;;3.40;2.83;;;1.40;99.90;;;;;;4992302;28;20174;-78
2021/12/25 12:49:25;;;;;;;4.63;3.20;;;1.30;99.90;;;;;;4993470;28;20201;-78
2021/12/25 12:52:09;;;;;;;4.27;2.87;;;1.30;99.90;;;;;;4993419;28;20283;-77
2021/12/25 12:54:49;;;;;;;5.37;2.97;;;1.30;99.90;;;;;;4993766;28;20173;-78
2021/12/25 12:57:26;;;;;;;3.97;2.80;;;1.30;99.90;;;;;;4992947;28;20170;-78
2021/12/25 12:59:58;;;;;;;6.20;2.90;;;1.20;99.90;;;;;;4993359;28;20204;-78
2021/12/25 13:02:29;;;;;;;3.90;2.30;;;1.20;99.90;;;;;;4992223;28;20206;-79
2021/12/25 13:04:59;;;;;;;3.47;2.47;;;1.20;99.90;;;;;;4993767;28;20162;-79
2021/12/25 13:07:30;;;;;;;2.50;2.10;;;1.10;99.90;;;;;;4993392;28;20682;-78
2021/12/25 13:10:13;;;;;;;3.17;2.53;;;1.10;99.90;;;;;;4993117;28;20601;-78
2021/12/25 13:15:11;;;;;;;2.47;2.07;;;1.10;99.90;;;;;;4994306;28;20726;-78
2021/12/25 13:17:38;;;;;;;4.17;2.40;;;1.10;99.90;;;;;;4993151;28;20200;-78
2021/12/25 13:20:07;;;;;;;2.60;2.17;;;1.10;99.90;;;;;;4994363;28;20180;-78
2021/12/25 13:22:33;;;;;;;3.00;2.33;;;1.10;99.90;;;;;;4993991;28;20684;-78
2021/12/25 13:25:09;;;;;;;3.17;2.03;;;1.10;99.90;;;;;;4993834;28;20236;-78
2021/12/25 13:27:35;;;;;;;3.03;2.20;;;1.10;99.90;;;;;;4994497;28;20199;-77
2021/12/25 13:30:10;;;;;;;3.00;2.40;;;1.10;99.90;;;;;;4995662;28;20178;-77
2021/12/25 13:32:36;;;;;;;3.37;2.03;;;1.10;99.90;;;;;;4995509;28;20216;-78
2021/12/25 13:35:02;;;;;;;2.00;1.80;;;1.10;99.90;;;;;;4997075;28;20184;-78
2021/12/25 13:37:28;;;;;;;2.17;1.80;;;1.10;99.90;;;;;;4995439;28;20212;-78
2021/12/25 13:39:54;;;;;;;2.83;2.10;;;1.10;99.90;;;;;;4996499;28;20646;-79
2021/12/25 13:42:19;;;;;;;4.87;2.20;;;1.10;99.90;;;;;;4996365;28;20201;-78
2021/12/25 13:44:47;;;;;;;2.87;1.70;;;1.00;99.90;;;;;;4996595;28;20187;-78
2021/12/25 13:47:13;;;;;;;2.07;1.70;;;1.10;99.90;;;;;;4996429;28;20251;-79
2021/12/25 13:49:46;;;;;;;3.30;2.53;;;1.00;99.90;;;;;;4996765;28;20228;-78
2021/12/25 13:52:20;;;;;;;2.40;1.70;;;1.00;99.90;;;;;;4995095;28;20228;-77
2021/12/25 13:54:57;;;;;;;2.73;1.67;;;1.00;99.90;;;;;;4996372;28;20181;-77
2021/12/25 13:57:25;;;;;;;2.73;1.87;;;0.90;99.90;;;;;;4996693;28;20174;-77
2021/12/25 13:59:56;;;;;;;3.27;2.00;;;0.90;99.90;;;;;;4996373;28;20185;-77
2021/12/25 14:02:24;;;;;;;2.00;1.80;;;0.90;99.90;;;;;;4995071;28;20205;-78
2021/12/25 14:04:52;;;;;;;2.23;1.70;;;0.90;99.90;;;;;;4996666;28;20240;-78
2021/12/25 14:07:22;;;;;;;1.63;1.50;;;0.90;99.90;;;;;;4994877;28;20213;-78
2021/12/25 14:09:57;;;;;;;4.30;1.90;;;0.90;99.90;;;;;;4996214;28;20181;-78
2021/12/25 14:12:23;;;;;;;2.30;1.90;;;1.00;99.90;;;;;;4995511;28;20691;-78